Time;durP1;ratioP1;P1;durP2;ratioP2;P2;SDS_P1;SDS_P2;PMS_P1;PMS_P2;Temp;Humidity;BMP_temperature;BMP_pressure;BME280_temperature;BME280_humidity;BME280_pressure;Samples;Min_cycle;Max_cycle;Signal;HPM_P1;HPM_P2
2024/01/24 00:00:34;;;;;;;8.27;0.80;;;;;;;18.82;52.52;101399.19;5001349;28;20035;-68
2024/01/24 00:02:59;;;;;;;4.38;1.02;;;;;;;18.85;53.16;101397.00;4975608;28;20379;-69
2024/01/24 00:05:25;;;;;;;8.27;1.10;;;;;;;18.86;52.45;101396.00;4976880;28;20031;-69
2024/01/24 00:07:50;;;;;;;5.47;1.40;;;;;;;18.88;52.46;101402.09;4975425;28;20034;-69
2024/01/24 00:10:15;;;;;;;4.55;1.27;;;;;;;18.91;53.06;101381.91;4980303;28;20117;-69
2024/01/24 00:12:41;;;;;;;4.22;1.25;;;;;;;18.92;52.72;101383.59;4996478;28;20041;-69
2024/01/24 00:15:06;;;;;;;4.75;1.15;;;;;;;18.94;52.70;101387.00;4995967;28;20121;-69
2024/01/24 00:17:32;;;;;;;3.88;1.00;;;;;;;18.97;53.06;101381.22;4994732;28;20026;-69
2024/01/24 00:19:57;;;;;;;3.90;1.17;;;;;;;18.97;52.76;101354.91;4996126;28;20081;-69
2024/01/24 00:22:22;;;;;;;6.65;1.33;;;;;;;19.02;52.91;101371.53;4977601;28;20525;-69
2024/01/24 00:24:48;;;;;;;8.23;0.80;;;;;;;19.04;53.04;101344.19;4978858;28;20497;-69
2024/01/24 00:27:13;;;;;;;6.20;1.02;;;;;;;19.06;52.28;101334.03;4996208;28;20041;-69
2024/01/24 00:29:39;;;;;;;3.08;0.77;;;;;;;19.06;52.27;101324.03;4996099;28;20034;-69
2024/01/24 00:32:04;;;;;;;7.07;1.20;;;;;;;19.07;52.60;101317.56;4994546;28;20061;-69
2024/01/24 00:34:29;;;;;;;2.40;0.70;;;;;;;19.09;52.70;101320.97;4996123;28;20022;-69
2024/01/24 00:36:55;;;;;;;1.85;0.75;;;;;;;19.10;52.33;101332.66;4994897;28;20109;-69
2024/01/24 00:39:20;;;;;;;6.15;0.95;;;;;;;19.10;52.58;101335.38;4994444;28;20035;-69
2024/01/24 00:41:47;;;;;;;4.13;0.70;;;;;;;19.13;53.22;101333.16;4979581;28;20033;-69
2024/01/24 00:44:13;;;;;;;5.63;1.60;;;;;;;19.15;52.33;101331.13;4996401;28;20038;-69
2024/01/24 00:46:40;;;;;;;3.72;0.98;;;;;;;19.17;52.34;101326.38;4996558;28;20525;-69
2024/01/24 00:49:09;;;;;;;2.75;1.17;;;;;;;19.21;52.39;101345.06;4977833;28;20085;-69
2024/01/24 00:51:35;;;;;;;2.38;0.70;;;;;;;19.23;52.37;101345.72;4978302;28;20038;-69
2024/01/24 00:54:00;;;;;;;1.05;0.95;;;;;;;19.23;52.49;101343.00;4993775;28;20039;-69
2024/01/24 00:56:25;;;;;;;3.17;1.05;;;;;;;19.23;52.30;101316.69;4978391;28;20398;-69
2024/01/24 00:58:51;;;;;;;2.10;0.52;;;;;;;19.27;52.63;101309.03;4995118;28;20478;-69
2024/01/24 01:01:16;;;;;;;1.65;0.70;;;;;;;19.28;51.76;101322.44;4992999;28;20026;-69
2024/01/24 01:03:41;;;;;;;4.10;0.68;;;;;;;19.28;52.54;101308.03;4977519;28;20104;-69
2024/01/24 01:06:08;;;;;;;1.55;0.32;;;;;;;19.33;52.51;101338.22;4993701;28;20027;-68
2024/01/24 01:08:34;;;;;;;0.93;0.55;;;;;;;19.35;52.32;101319.88;4993826;28;20068;-69
2024/01/24 01:11:00;;;;;;;0.82;0.50;;;;;;;19.35;51.80;101325.31;4993616;28;20566;-69
2024/01/24 01:13:25;;;;;;;4.38;0.90;;;;;;;19.37;51.82;101323.28;4994916;28;20114;-67
2024/01/24 01:15:51;;;;;;;2.45;1.20;;;;;;;19.38;52.21;101311.38;4993800;28;20030;-68
2024/01/24 01:18:16;;;;;;;1.85;0.77;;;;;;;19.39;51.93;101311.25;4994790;28;20441;-68
2024/01/24 01:20:42;;;;;;;1.80;0.45;;;;;;;19.41;52.09;101300.19;4993318;28;20050;-68
2024/01/24 01:23:07;;;;;;;1.35;0.40;;;;;;;19.43;52.04;101309.03;4994586;28;20512;-67
2024/01/24 01:25:33;;;;;;;0.90;0.75;;;;;;;19.43;52.17;101319.91;4977000;28;20561;-68
2024/01/24 01:27:58;;;;;;;1.48;0.63;;;;;;;19.47;51.99;101321.25;4994317;28;20039;-68
2024/01/24 01:30:23;;;;;;;1.00;0.32;;;;;;;19.50;51.87;101310.88;4994204;28;20035;-68
2024/01/24 01:32:49;;;;;;;3.08;0.40;;;;;;;19.50;52.03;101302.72;4993465;28;20034;-68
2024/01/24 01:35:15;;;;;;;3.90;0.50;;;;;;;19.52;51.92;101318.84;4993166;28;20031;-68
2024/01/24 01:37:40;;;;;;;0.45;0.45;;;;;;;19.51;52.30;101317.16;4993290;28;20065;-68
2024/01/24 01:40:06;;;;;;;3.70;0.45;;;;;;;19.55;51.71;101304.91;4993213;28;20034;-68
2024/01/24 01:42:32;;;;;;;1.73;0.50;;;;;;;19.54;52.44;101306.75;4994164;28;20057;-68
2024/01/24 01:44:57;;;;;;;1.55;0.70;;;;;;;19.53;52.22;101301.53;4976978;28;20549;-68
2024/01/24 01:47:23;;;;;;;4.18;0.43;;;;;;;19.49;52.16;101298.28;4994398;28;20038;-68
2024/01/24 01:49:48;;;;;;;0.98;0.50;;;;;;;19.46;51.94;101295.94;4992715;28;20049;-68
2024/01/24 01:52:14;;;;;;;3.00;1.05;;;;;;;19.48;51.94;101302.06;4970236;28;20037;-68
2024/01/24 01:54:41;;;;;;;1.02;0.30;;;;;;;19.48;51.63;101304.78;4993227;28;20035;-68
2024/01/24 01:57:08;;;;;;;1.20;0.40;;;;;;;19.49;52.33;101313.75;4977704;28;20026;-68
2024/01/24 01:59:34;;;;;;;1.45;0.50;;;;;;;19.50;51.45;101319.03;4977612;28;20035;-68
2024/01/24 02:02:01;;;;;;;0.35;0.30;;;;;;;19.51;52.03;101309.00;4993186;28;20034;-68
2024/01/24 02:04:26;;;;;;;1.45;0.38;;;;;;;19.51;51.27;101309.88;4976991;28;20058;-68
2024/01/24 02:06:52;;;;;;;0.55;0.22;;;;;;;19.51;51.83;101309.88;4992968;28;20030;-68
2024/01/24 02:09:17;;;;;;;0.60;0.30;;;;;;;19.55;52.04;101289.44;4992680;28;20395;-68
2024/01/24 02:11:43;;;;;;;1.92;0.13;;;;;;;19.56;51.61;101302.03;4993828;28;20053;-68
2024/01/24 02:14:10;;;;;;;3.10;0.50;;;;;;;19.58;51.44;101288.25;4983230;28;20034;-68
2024/01/24 02:16:36;;;;;;;0.30;0.30;;;;;;;19.59;51.63;101295.38;5000375;28;20053;-68
2024/01/24 02:19:02;;;;;;;0.73;0.40;;;;;;;19.59;51.23;101287.22;5000491;28;20494;-68
2024/01/24 02:21:28;;;;;;;0.77;0.20;;;;;;;19.59;51.51;101301.69;4999177;28;20034;-69
2024/01/24 02:23:53;;;;;;;0.68;0.30;;;;;;;19.60;51.54;101297.91;5000431;28;20118;-68
2024/01/24 02:26:20;;;;;;;0.90;0.30;;;;;;;19.58;52.27;101283.66;4999107;28;20026;-68
2024/01/24 02:28:45;;;;;;;0.20;0.20;;;;;;;19.57;52.35;101276.53;4999092;28;20053;-68
2024/01/24 02:31:11;;;;;;;0.30;0.30;;;;;;;19.55;52.10;101291.31;4999177;28;20513;-68
2024/01/24 02:33:36;;;;;;;0.38;0.30;;;;;;;19.49;52.24;101286.56;4999664;28;20116;-68
2024/01/24 02:36:01;;;;;;;0.38;0.20;;;;;;;19.45;52.17;101282.53;4983074;28;20406;-68
2024/01/24 02:38:27;;;;;;;1.00;0.25;;;;;;;19.40;52.07;101280.31;4999159;28;20482;-68
2024/01/24 02:40:52;;;;;;;1.80;0.47;;;;;;;19.38;52.38;101278.78;5000623;28;20061;-68
2024/01/24 02:43:17;;;;;;;2.70;0.20;;;;;;;19.34;52.61;101291.03;4999130;28;20118;-68
2024/01/24 02:45:43;;;;;;;0.75;0.32;;;;;;;19.29;52.75;101288.81;5000291;28;20062;-68
2024/01/24 02:48:09;;;;;;;0.85;0.30;;;;;;;19.22;52.14;101265.25;4999170;28;20033;-68
2024/01/24 02:50:34;;;;;;;0.55;0.10;;;;;;;19.21;52.52;101263.56;5000308;28;20514;-68
2024/01/24 02:52:59;;;;;;;1.75;0.20;;;;;;;19.14;52.44;101256.13;4999147;28;20405;-68
2024/01/24 02:55:25;;;;;;;0.13;0.10;;;;;;;19.08;53.22;101243.22;4998983;28;20524;-68
2024/01/24 02:57:50;;;;;;;5.50;0.50;;;;;;;19.04;52.99;101274.44;5000101;28;20558;-68
2024/01/24 03:00:16;;;;;;;0.45;0.20;;;;;;;18.99;53.54;101265.97;4999830;28;20121;-68
2024/01/24 03:02:41;;;;;;;0.38;0.32;;;;;;;18.97;53.69;101270.75;4998681;28;20109;-68
2024/01/24 03:05:08;;;;;;;0.93;0.30;;;;;;;18.91;53.38;101270.59;4982792;28;20498;-68
2024/01/24 03:07:35;;;;;;;0.45;0.20;;;;;;;18.88;53.43;101285.34;5000444;28;20112;-68
2024/01/24 03:10:00;;;;;;;5.47;0.32;;;;;;;18.83;53.70;101282.31;4999867;28;20046;-68
2024/01/24 03:12:26;;;;;;;0.10;0.10;;;;;;;18.81;53.24;101273.50;4999126;28;20076;-68
2024/01/24 03:14:51;;;;;;;2.25;0.40;;;;;;;18.82;53.66;101285.19;4999065;28;20117;-68
2024/01/24 03:17:18;;;;;;;1.10;0.28;;;;;;;18.80;53.65;101270.94;4999225;28;20034;-69
2024/01/24 03:19:44;;;;;;;0.10;0.10;;;;;;;18.76;53.99;101270.44;5000137;28;20037;-69
2024/01/24 03:22:09;;;;;;;1.73;0.20;;;;;;;18.74;53.54;101280.63;4998836;28;20034;-69
2024/01/24 03:24:34;;;;;;;0.15;0.10;;;;;;;18.75;53.38;101274.19;4995908;28;20516;-69
2024/01/24 03:27:00;;;;;;;0.20;0.20;;;;;;;18.75;53.80;101274.19;4997175;28;20042;-69
2024/01/24 03:29:25;;;;;;;1.65;0.30;;;;;;;18.72;54.10;101274.50;4997101;28;20108;-69
2024/01/24 03:31:51;;;;;;;0.45;0.22;;;;;;;18.70;54.45;101276.56;4996049;28;20516;-70
2024/01/24 03:34:16;;;;;;;1.00;0.30;;;;;;;18.66;54.25;101242.63;4997290;28;20043;-70
2024/01/24 03:36:42;;;;;;;0.20;0.20;;;;;;;18.66;54.60;101239.91;4980119;28;20035;-70
2024/01/24 03:39:10;;;;;;;0.17;0.17;;;;;;;18.64;54.52;101260.09;4996721;28;20039;-70
2024/01/24 03:41:37;;;;;;;0.25;0.20;;;;;;;18.62;54.36;101273.00;4996626;28;20034;-70
2024/01/24 03:44:03;;;;;;;0.10;0.10;;;;;;;18.64;54.41;101276.38;4995992;28;20035;-70
2024/01/24 03:46:28;;;;;;;0.45;0.40;;;;;;;18.63;54.81;101272.81;4995676;28;20113;-69
2024/01/24 03:48:54;;;;;;;0.95;0.10;;;;;;;18.63;54.52;101297.25;4995897;28;20471;-70
2024/01/24 03:51:19;;;;;;;0.15;0.15;;;;;;;18.67;54.45;101254.34;4979176;28;20030;-70
2024/01/24 03:53:44;;;;;;;0.30;0.20;;;;;;;18.66;54.57;101302.34;4995825;28;20038;-70
2024/01/24 03:56:10;;;;;;;0.47;0.13;;;;;;;18.68;54.66;101302.19;4997149;28;20419;-70
2024/01/24 03:58:36;;;;;;;0.20;0.20;;;;;;;18.68;54.68;101294.03;4979302;28;20053;-69
2024/01/24 04:01:02;;;;;;;1.75;0.25;;;;;;;18.68;54.45;101326.59;4995368;28;20540;-69
2024/01/24 04:03:28;;;;;;;0.10;0.10;;;;;;;18.73;54.93;101319.66;4979047;28;20046;-69
2024/01/24 04:05:53;;;;;;;0.98;0.20;;;;;;;18.75;54.82;101327.59;4995389;28;20165;-69
2024/01/24 04:08:18;;;;;;;0.30;0.10;;;;;;;18.77;54.89;101337.28;4995092;28;20030;-69
2024/01/24 04:10:44;;;;;;;0.00;0.00;;;;;;;18.79;54.07;101323.56;4978784;28;20062;-69
2024/01/24 04:13:09;;;;;;;0.10;0.10;;;;;;;18.82;54.51;101318.59;4994924;28;20109;-69
2024/01/24 04:15:34;;;;;;;0.10;0.10;;;;;;;18.87;54.33;101328.97;4996510;28;20041;-69
2024/01/24 04:18:00;;;;;;;0.63;0.13;;;;;;;18.89;54.63;101335.94;4995064;28;20030;-69
2024/01/24 04:20:26;;;;;;;0.20;0.20;;;;;;;18.90;54.52;101362.03;4995153;28;20058;-69
2024/01/24 04:22:53;;;;;;;0.40;0.00;;;;;;;18.89;54.78;101341.34;4996416;28;20039;-69
2024/01/24 04:25:18;;;;;;;0.28;0.20;;;;;;;18.93;54.23;101334.53;4978893;28;20026;-69
2024/01/24 04:27:44;;;;;;;0.28;0.10;;;;;;;18.96;54.00;101347.78;4994865;28;20046;-68
2024/01/24 04:30:09;;;;;;;1.00;0.20;;;;;;;18.98;54.34;101345.75;4994606;28;20495;-68
2024/01/24 04:32:35;;;;;;;0.15;0.10;;;;;;;18.99;53.92;101336.59;4978254;28;20561;-68
2024/01/24 04:35:01;;;;;;;0.52;0.10;;;;;;;19.00;53.89;101351.88;4994336;28;20038;-68
2024/01/24 04:37:26;;;;;;;0.15;0.10;;;;;;;18.99;54.77;101346.59;4996035;28;20045;-68
2024/01/24 04:39:52;;;;;;;0.20;0.17;;;;;;;18.97;54.46;101360.34;4994853;28;20026;-68
2024/01/24 04:42:17;;;;;;;0.55;0.10;;;;;;;18.96;54.26;101358.66;4994908;28;20042;-69
2024/01/24 04:44:43;;;;;;;0.08;0.03;;;;;;;18.96;53.67;101393.09;4994296;28;20085;-68
2024/01/24 04:47:09;;;;;;;0.13;0.13;;;;;;;18.97;54.25;101390.22;4994517;28;20482;-68
2024/01/24 04:49:34;;;;;;;0.17;0.10;;;;;;;19.00;54.10;101405.31;4994119;28;20038;-68
2024/01/24 04:52:01;;;;;;;3.25;0.10;;;;;;;19.03;54.15;101380.53;4977898;28;20041;-68
2024/01/24 04:54:26;;;;;;;0.10;0.10;;;;;;;19.04;53.63;101372.22;4993921;28;20494;-68
2024/01/24 04:56:51;;;;;;;0.25;0.10;;;;;;;19.07;53.97;101404.47;4978308;28;20093;-68
2024/01/24 04:59:17;;;;;;;0.90;0.10;;;;;;;19.08;53.86;101400.75;4993781;28;20037;-68
2024/01/24 05:01:43;;;;;;;1.10;0.30;;;;;;;19.10;53.21;101414.13;4993870;28;20110;-68
2024/01/24 05:04:09;;;;;;;0.10;0.10;;;;;;;19.09;53.15;101413.31;4996138;28;20034;-68
2024/01/24 05:06:36;;;;;;;1.23;0.10;;;;;;;19.11;53.49;101405.84;4994444;28;20068;-68
2024/01/24 05:09:02;;;;;;;0.40;0.00;;;;;;;19.15;53.66;101428.09;4979050;28;20041;-69
2024/01/24 05:11:27;;;;;;;1.77;0.50;;;;;;;19.15;52.87;101403.63;4994004;28;20570;-68
2024/01/24 05:13:54;;;;;;;2.25;0.50;;;;;;;19.16;53.25;101398.00;4993704;28;20069;-68
2024/01/24 05:16:20;;;;;;;4.22;0.43;;;;;;;19.16;52.79;101408.88;4994398;28;20137;-68
2024/01/24 05:18:45;;;;;;;3.97;0.50;;;;;;;19.11;52.90;101410.41;4977400;28;20126;-67
2024/01/24 05:21:11;;;;;;;5.15;0.68;;;;;;;19.10;52.70;101417.72;4995115;28;20101;-68
2024/01/24 05:23:36;;;;;;;3.50;0.77;;;;;;;19.08;52.56;101436.03;4977334;28;20042;-68
2024/01/24 05:26:03;;;;;;;8.68;0.95;;;;;;;19.07;52.60;101419.91;4993448;28;20421;-68
2024/01/24 05:28:28;;;;;;;6.40;1.23;;;;;;;19.04;51.70;101429.25;4994552;28;20030;-67
2024/01/24 05:30:54;;;;;;;4.53;0.55;;;;;;;19.06;51.57;101439.94;4992990;28;20038;-68
2024/01/24 05:33:19;;;;;;;6.53;1.88;;;;;;;19.06;51.82;101437.22;4993117;28;20049;-68
2024/01/24 05:35:45;;;;;;;8.88;1.08;;;;;;;19.07;51.21;101442.47;4994533;28;20629;-68
2024/01/24 05:38:11;;;;;;;6.80;1.17;;;;;;;19.07;51.22;101436.19;4977329;28;20030;-68
2024/01/24 05:40:36;;;;;;;12.10;1.40;;;;;;;18.97;50.35;101392.94;4993150;28;20065;-68
2024/01/24 05:43:02;;;;;;;10.85;1.80;;;;;;;19.03;51.38;101396.84;4976746;28;20114;-68
2024/01/24 05:45:28;;;;;;;17.40;1.55;;;;;;;18.99;51.33;101423.47;4994231;28;20093;-68
2024/01/24 05:47:53;;;;;;;7.68;1.77;;;;;;;18.95;51.38;101432.13;4992248;28;20125;-68
2024/01/24 05:50:19;;;;;;;11.50;1.48;;;;;;;18.92;51.43;101433.31;4990497;28;20042;-67
2024/01/24 05:52:45;;;;;;;11.82;2.38;;;;;;;18.92;50.44;101459.63;4973387;28;20135;-68
2024/01/24 05:55:11;;;;;;;11.98;1.90;;;;;;;18.93;50.64;101483.88;4938811;28;20499;-68
2024/01/24 05:57:40;;;;;;;7.43;1.80;;;;;;;18.96;50.78;101467.25;4973005;28;20027;-68
2024/01/24 06:00:10;;;;;;;11.07;1.77;;;;;;;18.94;50.60;101488.31;4980995;28;20437;-68
2024/01/24 06:02:36;;;;;;;12.48;1.70;;;;;;;18.91;50.09;101496.78;4974553;28;20027;-68
2024/01/24 06:05:02;;;;;;;10.32;1.45;;;;;;;18.87;50.50;101498.13;4973320;28;20038;-68
2024/01/24 06:07:27;;;;;;;16.52;2.28;;;;;;;18.88;49.99;101501.69;4973067;28;20478;-68
2024/01/24 06:09:53;;;;;;;5.97;2.20;;;;;;;18.87;50.10;101522.56;4974227;28;20054;-68
2024/01/24 06:12:18;;;;;;;12.00;2.20;;;;;;;18.86;50.39;101510.00;4987652;28;20126;-68
2024/01/24 06:14:45;;;;;;;13.98;2.42;;;;;;;18.85;49.73;101507.44;4993990;28;20077;-67
2024/01/24 06:17:12;;;;;;;18.98;2.53;;;;;;;18.83;49.68;101520.34;4992423;28;20030;-67
2024/01/24 06:19:37;;;;;;;13.18;2.10;;;;;;;18.84;49.55;101524.78;4992524;28;20014;-67
2024/01/24 06:22:03;;;;;;;15.93;2.50;;;;;;;18.81;49.39;101517.81;4960216;28;20442;-66
2024/01/24 06:24:29;;;;;;;19.67;2.78;;;;;;;18.81;50.12;101538.66;4993639;28;20030;-65
2024/01/24 06:26:54;;;;;;;7.75;1.90;;;;;;;18.83;49.78;101536.63;4992338;28;20027;-64
2024/01/24 06:29:19;;;;;;;13.98;2.40;;;;;;;18.81;49.51;101517.81;4993211;28;20030;-64
2024/01/24 06:31:48;;;;;;;10.27;1.92;;;;;;;18.81;49.17;101531.38;4992015;28;20033;-65
2024/01/24 06:34:13;;;;;;;12.80;2.95;;;;;;;18.79;49.04;101522.53;4992205;28;20091;-66
2024/01/24 06:36:39;;;;;;;15.52;2.22;;;;;;;18.79;49.36;101514.38;4992972;28;20482;-67
2024/01/24 06:39:06;;;;;;;11.73;2.50;;;;;;;18.78;49.16;101511.84;4975694;28;20512;-66
2024/01/24 06:41:31;;;;;;;14.88;2.65;;;;;;;18.78;49.62;101528.13;4993111;28;20520;-67
2024/01/24 06:43:57;;;;;;;15.85;2.72;;;;;;;18.77;49.35;101559.88;4975676;28;20038;-66
2024/01/24 06:46:23;;;;;;;10.90;2.45;;;;;;;18.76;48.74;101582.56;4975748;28;20026;-67
2024/01/24 06:48:48;;;;;;;15.85;2.00;;;;;;;18.76;49.27;101551.91;4991954;28;20042;-66
2024/01/24 06:51:15;;;;;;;13.75;2.63;;;;;;;18.75;48.70;101583.63;4993427;28;20026;-67
2024/01/24 06:53:40;;;;;;;20.20;3.78;;;;;;;18.76;48.79;101574.44;4991976;28;20508;-67
2024/01/24 06:56:06;;;;;;;14.48;3.30;;;;;;;18.75;48.68;101578.19;4993006;28;20034;-67
2024/01/24 06:58:31;;;;;;;20.52;4.70;;;;;;;18.75;48.50;101589.03;4992110;28;20456;-66
2024/01/24 07:00:57;;;;;;;17.60;2.67;;;;;;;18.76;48.63;101563.56;4996883;28;20081;-66
2024/01/24 07:03:22;;;;;;;19.30;3.25;;;;;;;18.70;48.22;101576.97;4995939;28;20034;-66
2024/01/24 07:05:47;;;;;;;10.73;3.92;;;;;;;18.70;48.22;101588.69;4996285;28;20037;-66
2024/01/24 07:08:13;;;;;;;9.93;2.65;;;;;;;18.67;48.74;101593.59;4980057;28;20482;-66
2024/01/24 07:10:39;;;;;;;16.52;2.38;;;;;;;18.67;48.34;101601.72;4975626;28;20038;-67
2024/01/24 07:13:05;;;;;;;19.92;3.33;;;;;;;18.66;48.36;101600.88;4963947;28;20044;-66
2024/01/24 07:15:30;;;;;;;17.90;3.83;;;;;;;18.64;48.23;101592.06;4995437;28;20424;-67
2024/01/24 07:17:56;;;;;;;21.58;3.38;;;;;;;18.64;48.18;101592.06;4996891;28;20031;-66
2024/01/24 07:20:21;;;;;;;20.27;3.03;;;;;;;18.61;48.44;101589.66;4995310;28;20397;-67
2024/01/24 07:22:47;;;;;;;21.00;4.07;;;;;;;18.58;48.33;101604.41;4995633;28;20030;-66
2024/01/24 07:25:12;;;;;;;15.77;3.53;;;;;;;18.59;48.30;101632.41;4995579;28;20042;-68
2024/01/24 07:27:38;;;;;;;13.90;3.05;;;;;;;18.60;48.20;101621.38;4995593;28;20482;-67
2024/01/24 07:30:04;;;;;;;20.70;3.35;;;;;;;18.55;48.13;101625.56;4995432;28;20042;-66
2024/01/24 07:32:31;;;;;;;22.42;3.10;;;;;;;18.61;47.93;101652.06;4995274;28;20113;-67
2024/01/24 07:34:58;;;;;;;17.25;3.33;;;;;;;18.60;48.02;101667.50;4996416;28;20030;-67
2024/01/24 07:37:23;;;;;;;19.98;3.33;;;;;;;18.60;47.26;101677.50;4996180;28;20065;-67
2024/01/24 07:39:48;;;;;;;18.55;2.83;;;;;;;18.62;48.03;101670.03;4996399;28;20062;-67
2024/01/24 07:42:14;;;;;;;14.55;2.38;;;;;;;18.62;47.86;101685.50;4994877;28;20058;-67
2024/01/24 07:44:40;;;;;;;18.83;3.55;;;;;;;18.61;47.64;101700.94;4978316;28;20026;-66
2024/01/24 07:47:05;;;;;;;14.70;2.55;;;;;;;18.63;47.18;101708.91;4994965;28;20045;-67
2024/01/24 07:49:31;;;;;;;15.73;2.75;;;;;;;18.66;47.61;101722.16;4994732;28;20039;-66
2024/01/24 07:51:57;;;;;;;14.88;3.28;;;;;;;18.62;47.59;101697.19;4994626;28;20458;-67
2024/01/24 07:54:22;;;;;;;20.15;2.83;;;;;;;18.63;47.67;101720.59;4994661;28;20053;-67
2024/01/24 07:56:48;;;;;;;16.73;3.33;;;;;;;18.64;47.03;101699.75;4995581;28;20521;-67
2024/01/24 07:59:16;;;;;;;12.00;2.42;;;;;;;18.63;46.53;101714.31;4995784;28;20030;-66
2024/01/24 08:01:44;;;;;;;19.02;3.50;;;;;;;18.63;47.25;101722.47;4978729;28;20054;-68
2024/01/24 08:04:10;;;;;;;20.88;3.05;;;;;;;18.61;47.43;101722.63;4995670;28;20109;-66
2024/01/24 08:06:35;;;;;;;16.90;3.90;;;;;;;18.63;46.58;101742.31;4994442;28;20073;-67
2024/01/24 08:09:00;;;;;;;19.55;3.55;;;;;;;18.64;47.23;101733.19;4977899;28;20550;-65
2024/01/24 08:11:26;;;;;;;22.67;3.25;;;;;;;18.65;46.55;101744.88;4993609;28;20474;-67
2024/01/24 08:13:51;;;;;;;21.05;2.78;;;;;;;18.64;46.86;101733.19;4995452;28;20129;-67
2024/01/24 08:16:18;;;;;;;20.30;3.70;;;;;;;18.62;46.81;101743.31;4993956;28;20066;-66
2024/01/24 08:18:44;;;;;;;23.23;3.67;;;;;;;18.64;46.46;101764.88;4994417;28;20045;-66
2024/01/24 08:21:09;;;;;;;25.02;3.17;;;;;;;18.61;46.85;101760.63;4994254;28;20035;-66
2024/01/24 08:23:35;;;;;;;17.48;3.92;;;;;;;18.69;47.05;101767.97;4994029;28;20030;-67
2024/01/24 08:26:00;;;;;;;18.88;2.97;;;;;;;18.69;46.53;101774.25;4995261;28;20545;-66
2024/01/24 08:28:26;;;;;;;15.15;2.92;;;;;;;18.67;46.80;101795.28;4994943;28;20042;-66
2024/01/24 08:30:51;;;;;;;17.88;4.85;;;;;;;18.64;46.51;101782.03;4995030;28;20101;-66
2024/01/24 08:33:16;;;;;;;22.05;4.20;;;;;;;18.66;46.35;101790.84;4995139;28;20039;-66
2024/01/24 08:35:42;;;;;;;18.98;3.70;;;;;;;18.71;46.71;101785.81;4977550;28;20398;-66
2024/01/24 08:38:09;;;;;;;15.52;3.00;;;;;;;18.71;46.59;101782.22;4993858;28;20053;-67
2024/01/24 08:40:35;;;;;;;25.58;3.15;;;;;;;18.70;45.85;101786.84;4993996;28;20445;-66
2024/01/24 08:43:00;;;;;;;24.80;4.30;;;;;;;18.70;46.37;101797.69;4995014;28;20089;-66
2024/01/24 08:45:26;;;;;;;26.25;3.95;;;;;;;18.69;45.80;101804.13;4977427;28;20402;-66
2024/01/24 08:47:51;;;;;;;26.33;4.22;;;;;;;18.71;46.49;101812.09;4993412;28;20397;-66
2024/01/24 08:50:16;;;;;;;21.05;3.17;;;;;;;18.71;45.60;101826.53;4993496;28;20463;-66
2024/01/24 08:52:42;;;;;;;23.08;4.15;;;;;;;18.70;46.36;101804.97;4994454;28;20099;-67
2024/01/24 08:55:08;;;;;;;26.10;4.68;;;;;;;18.68;46.12;101818.69;4977202;28;20114;-66
2024/01/24 08:57:33;;;;;;;17.50;3.17;;;;;;;18.67;46.27;101833.28;4994824;28;20517;-67
2024/01/24 08:59:58;;;;;;;19.05;3.67;;;;;;;18.66;45.65;101834.28;4993331;28;20097;-66
2024/01/24 09:02:25;;;;;;;22.73;3.45;;;;;;;18.72;45.69;101822.81;4976992;28;20520;-67
2024/01/24 09:04:52;;;;;;;21.42;3.33;;;;;;;18.77;45.83;101834.03;4994538;28;20457;-67
2024/01/24 09:07:19;;;;;;;18.55;3.60;;;;;;;18.80;45.84;101838.28;4994388;28;20409;-67
2024/01/24 09:09:49;;;;;;;24.17;5.00;;;;;;;18.80;45.80;101836.44;4992863;28;20513;-67
2024/01/24 09:12:15;;;;;;;26.35;4.38;;;;;;;18.81;45.31;101831.88;4992815;28;20041;-67
2024/01/24 09:14:40;;;;;;;20.52;4.25;;;;;;;18.88;45.26;101843.78;4993102;28;20038;-66
2024/01/24 09:17:07;;;;;;;16.02;3.35;;;;;;;18.92;45.69;101845.19;4994412;28;20034;-66
2024/01/24 09:19:33;;;;;;;20.50;3.95;;;;;;;18.93;44.92;101847.72;4994520;28;20034;-66
2024/01/24 09:21:59;;;;;;;17.35;3.75;;;;;;;18.99;44.75;101857.97;4993722;28;20045;-67
2024/01/24 09:24:24;;;;;;;20.95;3.53;;;;;;;18.99;44.94;101863.41;4993130;28;20034;-66
2024/01/24 09:26:50;;;;;;;17.30;3.65;;;;;;;19.03;45.07;101870.22;4976845;28;20157;-67
2024/01/24 09:29:15;;;;;;;16.60;4.50;;;;;;;19.04;45.13;101861.06;4994794;28;20054;-66
2024/01/24 09:31:45;;;;;;;26.08;3.08;;;;;;;19.00;44.66;101862.41;4994652;28;20036;-67
2024/01/24 09:34:11;;;;;;;26.20;4.53;;;;;;;19.02;44.72;101863.09;4993192;28;20026;-66
2024/01/24 09:36:37;;;;;;;26.95;3.88;;;;;;;19.04;44.87;101888.22;4993168;28;20113;-66
2024/01/24 09:39:03;;;;;;;15.30;3.42;;;;;;;19.04;44.83;101914.50;4992751;28;20169;-67
2024/01/24 09:41:34;;;;;;;24.13;4.60;;;;;;;18.99;44.54;101915.00;4993903;28;20030;-66
2024/01/24 09:44:04;;;;;;;31.15;4.95;;;;;;;18.94;44.97;101930.91;4993743;28;20521;-66
2024/01/24 09:46:30;;;;;;;20.63;4.28;;;;;;;18.92;44.45;101930.22;4976763;28;20038;-66
2024/01/24 09:48:55;;;;;;;22.38;3.75;;;;;;;18.86;44.63;101906.41;4976710;28;20041;-66
2024/01/24 09:51:21;;;;;;;25.20;3.08;;;;;;;18.89;44.36;101922.38;4993734;28;20034;-66
2024/01/24 09:53:48;;;;;;;29.23;4.13;;;;;;;18.89;45.18;101943.25;4992464;28;20410;-66
2024/01/24 09:56:14;;;;;;;28.83;4.05;;;;;;;18.87;44.77;101951.53;4992397;28;20034;-68
2024/01/24 09:58:39;;;;;;;22.67;4.55;;;;;;;18.89;44.81;101973.13;4992316;28;20069;-66
2024/01/24 10:01:07;;;;;;;18.25;3.05;;;;;;;18.89;44.34;101959.53;4992524;28;20034;-67
2024/01/24 10:03:33;;;;;;;26.90;4.05;;;;;;;18.86;44.54;101968.84;4992751;28;20034;-67
2024/01/24 10:05:59;;;;;;;23.25;3.95;;;;;;;18.89;44.75;101971.25;4976023;28;20041;-67
2024/01/24 10:08:25;;;;;;;22.50;3.22;;;;;;;18.92;44.63;101965.53;4993727;28;20038;-66
2024/01/24 10:10:50;;;;;;;21.45;3.92;;;;;;;18.99;44.31;101969.31;4993259;28;20046;-67
2024/01/24 10:13:16;;;;;;;16.95;4.15;;;;;;;19.04;44.42;101968.81;4975811;28;20517;-67
2024/01/24 10:15:41;;;;;;;22.75;4.30;;;;;;;19.07;44.43;101963.94;4976028;28;20457;-67
2024/01/24 10:18:07;;;;;;;17.75;3.20;;;;;;;19.06;43.85;101954.13;4992191;28;20061;-67
2024/01/24 10:20:32;;;;;;;25.80;4.85;;;;;;;19.11;44.10;101959.91;4993498;28;20065;-66
2024/01/24 10:22:58;;;;;;;26.02;4.15;;;;;;;19.12;44.50;101971.66;4992147;28;20522;-67
2024/01/24 10:25:24;;;;;;;26.77;4.75;;;;;;;19.17;43.35;101963.88;4993505;28;20039;-67
2024/01/24 10:27:50;;;;;;;24.30;3.42;;;;;;;19.22;43.64;101971.53;4975940;28;20035;-66
2024/01/24 10:30:15;;;;;;;19.27;3.00;;;;;;;19.23;44.06;101965.09;4993489;28;20053;-66
2024/01/24 10:32:43;;;;;;;22.00;3.83;;;;;;;19.26;43.78;101978.38;4993455;28;20050;-67
2024/01/24 10:35:08;;;;;;;20.80;3.60;;;;;;;19.36;43.31;101984.56;4995963;28;20034;-66
2024/01/24 10:37:34;;;;;;;17.75;3.20;;;;;;;19.45;42.97;101979.09;4995463;28;20039;-66
2024/01/24 10:40:05;;;;;;;24.58;3.65;;;;;;;19.48;43.33;102005.09;4997230;28;20030;-67
2024/01/24 10:42:35;;;;;;;22.08;4.13;;;;;;;19.47;43.43;102003.38;4995095;28;20034;-66
2024/01/24 10:45:06;;;;;;;27.02;4.47;;;;;;;19.45;42.92;101999.97;4995982;28;20421;-67
2024/01/24 10:47:31;;;;;;;19.75;4.00;;;;;;;19.42;43.40;102009.28;4997128;28;20038;-66
2024/01/24 10:49:56;;;;;;;29.98;4.53;;;;;;;19.47;43.31;102019.69;4995785;28;20494;-67
2024/01/24 10:52:22;;;;;;;19.88;4.35;;;;;;;19.47;43.45;102025.09;4995676;28;20034;-67
2024/01/24 10:54:49;;;;;;;21.13;3.15;;;;;;;19.51;42.75;102011.06;4995761;28;20109;-66
2024/01/24 10:57:18;;;;;;;13.73;4.13;;;;;;;19.53;43.17;102019.91;4979496;28;20045;-67
2024/01/24 10:59:44;;;;;;;19.63;4.22;;;;;;;19.56;42.76;102002.41;4995879;28;20037;-67
2024/01/24 11:02:10;;;;;;;20.00;3.25;;;;;;;19.66;43.24;102019.47;4995713;28;20038;-66
2024/01/24 11:04:36;;;;;;;17.58;4.82;;;;;;;19.71;42.79;102006.25;4978995;28;20038;-67
2024/01/24 11:07:04;;;;;;;17.95;3.97;;;;;;;19.73;43.07;102010.53;4995524;28;20030;-67
2024/01/24 11:10:04;;;;;;;25.65;3.58;;;;;;;19.85;43.00;102013.81;4978793;28;20125;-67
2024/01/24 11:12:29;;;;;;;14.82;3.50;;;;;;;19.88;42.97;102029.81;4996601;28;20465;-67
2024/01/24 11:15:05;;;;;;;14.15;3.20;;;;;;;19.95;42.45;102033.63;4995566;28;20041;-67